Time;durP1;ratioP1;P1;durP2;ratioP2;P2;SDS_P1;SDS_P2;PMS_P1;PMS_P2;Temp;Humidity;BMP_temperature;BMP_pressure;BME280_temperature;BME280_humidity;BME280_pressure;Samples;Min_cycle;Max_cycle;Signal;HPM_P1;HPM_P2
2022/01/01 00:02:20;;;;;;;;;;;;;;;17.69;44.93;101077.50;5034053;28;20028;-55
2022/01/01 00:05:03;;;;;;;;;;;;;;;17.71;45.25;101080.84;5033405;28;20389;-55
2022/01/01 00:07:29;;;;;;;;;;;;;;;17.66;44.97;101084.59;5032964;28;19971;-54
2022/01/01 00:09:56;;;;;;;;;;;;;;;17.69;45.27;101083.97;5033081;28;19964;-56
2022/01/01 00:12:27;;;;;;;;;;;;;;;17.69;45.01;101077.50;5041588;28;20317;-56
2022/01/01 00:14:54;;;;;;;;;;;;;;;17.69;45.22;101074.69;5046662;28;19921;-56
2022/01/01 00:17:20;;;;;;;;;;;;;;;17.67;45.10;101079.78;5032255;28;19921;-56
2022/01/01 00:19:47;;;;;;;;;;;;;;;17.65;45.06;101080.13;5052741;28;20012;-55
2022/01/01 00:22:14;;;;;;;;;;;;;;;17.63;45.31;101082.41;5045593;28;19928;-57
2022/01/01 00:24:41;;;;;;;;;;;;;;;17.61;45.36;101069.78;5032943;28;19928;-56
2022/01/01 00:27:07;;;;;;;;;;;;;;;17.63;45.18;101071.13;5031262;28;19921;-56
2022/01/01 00:29:34;;;;;;;;;;;;;;;17.65;45.50;101068.00;5032467;28;20051;-57
2022/01/01 00:32:01;;;;;;;;;;;;;;;17.67;45.02;101074.97;5032721;28;19921;-56
2022/01/01 00:34:33;;;;;;;;;;;;;;;17.71;44.92;101083.69;5033179;28;20486;-56
2022/01/01 00:36:59;;;;;;;;;;;;;;;17.71;44.96;101076.03;5032496;28;19921;-57
2022/01/01 00:39:26;;;;;;;;;;;;;;;17.73;44.55;101079.38;5032552;28;19979;-56
2022/01/01 00:41:53;;;;;;;;;;;;;;;17.75;44.97;101070.59;5037899;28;19964;-56
2022/01/01 00:44:19;;;;;;;;;;;;;;;17.77;44.94;101066.31;5045746;28;20008;-55
2022/01/01 00:46:46;;;;;;;;;;;;;;;17.77;45.01;101069.13;5043377;28;20008;-57
2022/01/01 00:49:13;;;;;;;;;;;;;;;17.74;44.80;101064.13;5032733;28;19932;-57
2022/01/01 00:51:42;;;;;;;;;;;;;;;17.74;44.66;101057.59;5033215;28;20019;-56
2022/01/01 00:54:09;;;;;;;;;;;;;;;17.80;44.79;101066.84;5032166;28;19964;-57
2022/01/01 00:56:35;;;;;;;;;;;;;;;17.75;44.69;101071.44;5032051;28;19967;-56
2022/01/01 00:59:02;;;;;;;;;;;;;;;17.69;44.93;101067.03;5033383;28;20047;-55
2022/01/01 01:01:29;;;;;;;;;;;;;;;17.67;44.88;101060.84;5052149;28;19925;-54
2022/01/01 01:03:55;;;;;;;;;;;;;;;17.66;45.01;101059.19;5052125;28;19920;-57
2022/01/01 01:06:22;;;;;;;;;;;;;;;17.65;44.93;101059.53;5052215;28;19960;-57
2022/01/01 01:08:51;;;;;;;;;;;;;;;17.65;44.81;101048.22;5047818;28;20007;-55
2022/01/01 01:11:18;;;;;;;;;;;;;;;17.65;45.08;101053.88;5032431;28;20016;-56
2022/01/01 01:13:50;;;;;;;;;;;;;;;17.72;44.76;101051.44;5031858;28;19968;-55
2022/01/01 01:16:17;;;;;;;;;;;;;;;17.75;44.73;101048.81;5049065;28;20432;-57
2022/01/01 01:18:44;;;;;;;;;;;;;;;17.76;44.76;101049.69;5038833;28;19951;-57
2022/01/01 01:21:11;;;;;;;;;;;;;;;17.74;44.79;101051.94;5031986;28;19921;-54
2022/01/01 01:23:38;;;;;;;;;;;;;;;17.72;44.52;101051.44;5032596;28;20270;-58
2022/01/01 01:26:04;;;;;;;;;;;;;;;17.72;44.81;101042.97;5032348;28;20020;-57
2022/01/01 01:28:31;;;;;;;;;;;;;;;17.73;44.70;101051.13;5032101;28;19921;-56
2022/01/01 01:30:58;;;;;;;;;;;;;;;17.72;44.82;101049.47;5035881;28;20020;-56
2022/01/01 01:33:24;;;;;;;;;;;;;;;17.69;44.61;101050.09;5036125;28;19951;-54
2022/01/01 01:35:51;;;;;;;;;;;;;;;17.69;44.80;101046.44;5036647;28;19964;-56
2022/01/01 01:38:18;;;;;;;;;;;;;;;17.71;44.62;101053.44;5036092;28;19927;-55
2022/01/01 01:40:45;;;;;;;;;;;;;;;17.71;44.57;101053.44;5036214;28;20024;-56
2022/01/01 01:43:13;;;;;;;;;;;;;;;17.70;44.76;101051.75;5035929;28;19977;-57
2022/01/01 01:45:39;;;;;;;;;;;;;;;17.67;44.64;101049.56;5035735;28;20346;-55
2022/01/01 01:48:06;;;;;;;;;;;;;;;17.68;44.96;101059.72;5053412;28;19924;-56
2022/01/01 01:50:35;;;;;;;;;;;;;;;17.67;44.84;101041.06;5055998;28;19963;-57
2022/01/01 01:53:01;;;;;;;;;;;;;;;17.64;45.03;101053.03;5045043;28;19983;-55
2022/01/01 01:55:28;;;;;;;;;;;;;;;17.58;44.89;101048.66;5035477;28;20011;-56
2022/01/01 01:57:56;;;;;;;;;;;;;;;17.56;44.86;101048.13;5042121;28;20368;-56
2022/01/01 02:01:24;;;;;;;;;;;;;;;17.57;45.00;101043.28;5054792;28;20011;-54
2022/01/01 02:03:22;;;;;;;;;;;;;;;17.58;45.03;101042.16;5037551;28;20369;-55
2022/01/01 02:05:49;;;;;;;;;;;;;;;17.55;44.97;101037.16;5035289;28;19975;-56
2022/01/01 02:08:16;;;;;;;;;;;;;;;17.49;45.29;101039.25;5047291;28;20003;-56
2022/01/01 02:10:46;;;;;;;;;;;;;;;17.52;45.14;101035.78;5055601;28;20019;-56
2022/01/01 02:13:21;;;;;;;;;;;;;;;17.51;45.10;101020.00;5049730;28;19964;-57
2022/01/01 02:18:18;;;;;;;;;;;;;;;17.53;44.86;101020.50;5038879;28;19992;-56
2022/01/01 02:20:49;;;;;;;;;;;;;;;17.53;45.01;101018.50;5035332;28;20070;-56
2022/01/01 02:23:21;;;;;;;;;;;;;;;17.51;45.12;101025.66;5035376;28;20005;-55
2022/01/01 02:25:51;;;;;;;;;;;;;;;17.45;45.20;101026.91;5035394;28;19928;-57
2022/01/01 02:28:18;;;;;;;;;;;;;;;17.40;45.01;101029.81;5034973;28;20011;-55
2022/01/01 02:30:45;;;;;;;;;;;;;;;17.39;45.09;101028.16;5035288;28;20003;-56
2022/01/01 02:33:12;;;;;;;;;;;;;;;17.37;45.51;101024.84;5034882;28;20015;-56
2022/01/01 02:35:39;;;;;;;;;;;;;;;17.37;45.28;101020.03;5035479;28;19972;-56
2022/01/01 02:38:07;;;;;;;;;;;;;;;17.36;45.44;101026.78;5035240;28;20021;-57
2022/01/01 02:40:34;;;;;;;;;;;;;;;17.34;45.58;101019.81;5034305;28;20563;-55
2022/01/01 02:43:01;;;;;;;;;;;;;;;17.33;45.50;101018.13;5035040;28;20020;-55
2022/01/01 02:45:29;;;;;;;;;;;;;;;17.31;45.15;101017.63;5034820;28;20300;-57
2022/01/01 02:47:56;;;;;;;;;;;;;;;17.28;45.34;101011.44;5035653;28;19921;-56
2022/01/01 02:50:24;;;;;;;;;;;;;;;17.31;45.34;101021.28;5035318;28;20352;-56
2022/01/01 02:52:51;;;;;;;;;;;;;;;17.32;45.55;101013.63;5039832;28;19968;-57
2022/01/01 02:55:17;;;;;;;;;;;;;;;17.27;45.25;101015.41;5053931;28;19927;-55
2022/01/01 02:57:44;;;;;;;;;;;;;;;17.23;45.38;101013.53;5054179;28;19946;-55
2022/01/01 03:00:11;;;;;;;;;;;;;;;17.20;45.62;101015.00;5051659;28;19975;-55
2022/01/01 03:02:38;;;;;;;;;;;;;;;17.13;45.83;101020.25;5034362;28;19921;-54
2022/01/01 03:05:06;;;;;;;;;;;;;;;17.07;45.73;101021.47;5034362;28;19921;-56
2022/01/01 03:07:35;;;;;;;;;;;;;;;17.03;46.31;101014.81;5034608;28;20007;-55
2022/01/01 03:10:01;;;;;;;;;;;;;;;17.02;46.15;101008.28;5033913;28;19921;-55
2022/01/01 03:12:28;;;;;;;;;;;;;;;17.01;46.24;101005.81;5034126;28;20024;-56
2022/01/01 03:14:55;;;;;;;;;;;;;;;16.99;46.26;101010.91;5033963;28;19927;-56
2022/01/01 03:17:21;;;;;;;;;;;;;;;17.01;46.15;101005.81;5033760;28;19925;-55
2022/01/01 03:19:49;;;;;;;;;;;;;;;17.02;45.81;101008.28;5034408;28;20349;-56
2022/01/01 03:22:16;;;;;;;;;;;;;;;17.06;45.80;101005.72;5034043;28;19995;-55
2022/01/01 03:24:43;;;;;;;;;;;;;;;17.09;45.67;101007.06;5034325;28;19925;-55
2022/01/01 03:27:10;;;;;;;;;;;;;;;17.08;45.64;101011.03;5033306;28;20448;-55
2022/01/01 03:29:38;;;;;;;;;;;;;;;17.05;45.91;101006.84;5033532;28;19921;-56
2022/01/01 03:32:05;;;;;;;;;;;;;;;17.02;45.42;101015.94;5033560;28;19968;-55
2022/01/01 03:34:31;;;;;;;;;;;;;;;17.07;45.48;101006.53;5033645;28;19980;-56
2022/01/01 03:36:58;;;;;;;;;;;;;;;17.05;45.87;101012.47;5049091;28;20019;-54
2022/01/01 03:39:27;;;;;;;;;;;;;;;17.02;45.96;101004.63;5053368;28;20459;-54
2022/01/01 03:41:54;;;;;;;;;;;;;;;17.00;45.89;101009.78;5052568;28;19921;-55
2022/01/01 03:44:21;;;;;;;;;;;;;;;17.01;45.47;101006.63;5052823;28;19921;-54
2022/01/01 03:46:48;;;;;;;;;;;;;;;17.06;45.57;101011.34;5033370;28;19927;-57
2022/01/01 03:49:15;;;;;;;;;;;;;;;17.04;45.64;101013.66;5033214;28;19921;-55
2022/01/01 03:51:42;;;;;;;;;;;;;;;17.01;45.68;101008.63;5032965;28;20475;-53
2022/01/01 03:54:08;;;;;;;;;;;;;;;16.99;45.78;101025.00;5032441;28;19921;-54
2022/01/01 03:56:37;;;;;;;;;;;;;;;16.98;45.73;101020.53;5050670;28;19920;-53
2022/01/01 03:59:04;;;;;;;;;;;;;;;16.96;45.94;101020.84;5045612;28;20285;-52
2022/01/01 04:01:31;;;;;;;;;;;;;;;16.94;45.92;101025.13;5033003;28;19962;-54
2022/01/01 04:03:58;;;;;;;;;;;;;;;16.93;45.97;101020.66;5033159;28;20341;-54
2022/01/01 04:06:24;;;;;;;;;;;;;;;16.94;45.80;101025.97;5033290;28;19920;-56
2022/01/01 04:08:51;;;;;;;;;;;;;;;16.93;45.53;101020.66;5033076;28;19976;-54
2022/01/01 04:11:19;;;;;;;;;;;;;;;16.95;45.87;101024.81;5033043;28;20007;-54
2022/01/01 04:13:45;;;;;;;;;;;;;;;16.96;45.70;101014.38;5032739;28;20008;-53
2022/01/01 04:16:12;;;;;;;;;;;;;;;16.98;45.47;101017.72;5039266;28;19999;-54
2022/01/01 04:18:39;;;;;;;;;;;;;;;16.97;45.40;101016.88;5052641;28;19925;-55
2022/01/01 04:21:07;;;;;;;;;;;;;;;17.00;45.45;101016.25;5044229;28;19921;-65
2022/01/01 04:23:33;;;;;;;;;;;;;;;17.04;45.28;101016.47;5032705;28;19931;-56
2022/01/01 04:26:00;;;;;;;;;;;;;;;17.08;45.25;101027.97;5032399;28;19964;-56
2022/01/01 04:28:27;;;;;;;;;;;;;;;17.11;45.21;101019.69;5032842;28;20003;-55
2022/01/01 04:30:53;;;;;;;;;;;;;;;17.13;44.85;101020.25;5032545;28;20463;-56
2022/01/01 04:33:20;;;;;;;;;;;;;;;17.11;44.90;101010.41;5033241;28;20296;-55
2022/01/01 04:35:47;;;;;;;;;;;;;;;17.10;45.07;101018.03;5032580;28;20020;-56
2022/01/01 04:38:37;;;;;;;;;;;;;;;17.08;44.94;101011.03;5032296;28;20028;-56
2022/01/01 04:41:01;;;;;;;;;;;;;;;16.99;45.52;101008.09;5032447;28;19952;-55
2022/01/01 04:43:28;;;;;;;;;;;;;;;16.92;45.38;101000.06;5032334;28;20016;-55
2022/01/01 04:45:55;;;;;;;;;;;;;;;16.88;45.42;101003.81;5035095;28;20031;-56
2022/01/01 04:48:23;;;;;;;;;;;;;;;16.84;45.56;101008.41;5051118;28;19921;-56
2022/01/01 04:50:49;;;;;;;;;;;;;;;16.83;45.65;100999.09;5050077;28;20352;-55
2022/01/01 04:53:18;;;;;;;;;;;;;;;16.77;45.73;100998.34;5045716;28;20047;-55
2022/01/01 04:55:45;;;;;;;;;;;;;;;16.68;46.04;101005.00;5032033;28;19927;-52
2022/01/01 04:58:12;;;;;;;;;;;;;;;16.65;46.15;100999.97;5032096;28;20062;-53
2022/01/01 05:00:39;;;;;;;;;;;;;;;16.65;46.57;100992.38;5034714;28;19925;-56
2022/01/01 05:03:06;;;;;;;;;;;;;;;16.63;46.16;100993.81;5051553;28;20331;-54
2022/01/01 05:05:33;;;;;;;;;;;;;;;16.62;46.25;100995.81;5051651;28;19921;-54
2022/01/01 05:07:59;;;;;;;;;;;;;;;16.59;46.30;100991.63;5070660;28;19956;-54
2022/01/01 05:10:26;;;;;;;;;;;;;;;16.59;46.34;100987.97;5032179;28;19931;-54
2022/01/01 05:12:53;;;;;;;;;;;;;;;16.58;46.58;100973.03;5031846;28;20007;-53
2022/01/01 05:15:19;;;;;;;;;;;;;;;16.59;46.31;100987.97;5032312;28;19999;-52
2022/01/01 05:17:49;;;;;;;;;;;;;;;16.59;46.23;100982.34;5037024;28;19960;-53
2022/01/01 05:20:16;;;;;;;;;;;;;;;16.58;46.12;100983.47;5052041;28;19927;-54
2022/01/01 05:22:42;;;;;;;;;;;;;;;16.56;46.21;100983.78;5052231;28;19952;-54
2022/01/01 05:25:10;;;;;;;;;;;;;;;16.49;46.38;100985.34;5050808;28;19927;-50
2022/01/01 05:27:37;;;;;;;;;;;;;;;16.49;46.44;100988.16;5043560;28;20023;-55
2022/01/01 05:30:05;;;;;;;;;;;;;;;16.56;46.34;100988.59;5031833;28;20015;-53
2022/01/01 05:32:32;;;;;;;;;;;;;;;16.57;46.05;100971.34;5032082;28;20024;-53
2022/01/01 05:34:59;;;;;;;;;;;;;;;16.57;46.06;100976.16;5031717;28;19921;-52
2022/01/01 05:37:25;;;;;;;;;;;;;;;16.57;46.07;100970.53;5031719;28;20292;-55
2022/01/01 05:39:52;;;;;;;;;;;;;;;16.58;46.03;100969.38;5031665;28;20428;-55
2022/01/01 05:42:19;;;;;;;;;;;;;;;16.56;46.08;100958.41;5050726;28;20351;-55
2022/01/01 05:44:46;;;;;;;;;;;;;;;16.52;46.46;100967.81;5051481;28;19972;-55
2022/01/01 05:47:12;;;;;;;;;;;;;;;16.44;46.52;100972.16;5035300;28;20015;-55
2022/01/01 05:49:39;;;;;;;;;;;;;;;16.35;46.82;100959.94;5031505;28;20397;-55
2022/01/01 05:52:06;;;;;;;;;;;;;;;16.28;47.33;100968.78;5031854;28;19964;-55
2022/01/01 05:54:33;;;;;;;;;;;;;;;16.18;47.31;100963.34;5031573;28;20015;-55
2022/01/01 05:57:00;;;;;;;;;;;;;;;16.12;47.56;100967.38;5031852;28;19994;-53
2022/01/01 05:59:27;;;;;;;;;;;;;;;16.06;47.80;100965.78;5032045;28;20355;-53
2022/01/01 06:01:54;;;;;;;;;;;;;;;16.03;47.97;100974.84;5031826;28;20327;-54
2022/01/01 06:04:21;;;;;;;;;;;;;;;15.99;48.00;100966.19;5031703;28;20372;-55
2022/01/01 06:06:47;;;;;;;;;;;;;;;16.01;47.84;100974.34;5032963;28;20832;-54
2022/01/01 06:09:14;;;;;;;;;;;;;;;16.01;47.74;100968.72;5049901;28;20023;-54
2022/01/01 06:11:41;;;;;;;;;;;;;;;16.00;47.99;100965.06;5032168;28;20333;-53
2022/01/01 06:14:07;;;;;;;;;;;;;;;16.03;47.64;100963.59;5031370;28;20019;-53
2022/01/01 06:16:34;;;;;;;;;;;;;;;16.05;47.88;100961.31;5033927;28;20338;-58
2022/01/01 06:19:00;;;;;;;;;;;;;;;16.10;47.44;100958.38;5034998;28;19921;-54
2022/01/01 06:21:27;;;;;;;;;;;;;;;16.09;47.79;100965.19;5035196;28;19979;-54
2022/01/01 06:23:54;;;;;;;;;;;;;;;16.01;48.11;100972.34;5035167;28;20546;-57
2022/01/01 06:26:20;;;;;;;;;;;;;;;15.88;48.50;100971.16;5034779;28;19921;-56
2022/01/01 06:28:47;;;;;;;;;;;;;;;15.75;49.00;100973.91;5035138;28;19964;-62
2022/01/01 06:31:16;;;;;;;;;;;;;;;15.61;49.14;100985.06;5034921;28;20091;-57
2022/01/01 06:33:43;;;;;;;;;;;;;;;15.54;49.36;100970.53;5034466;28;20340;-54
2022/01/01 06:36:12;;;;;;;;;;;;;;;15.46;49.47;100977.69;5035085;28;19924;-55
2022/01/01 06:38:41;;;;;;;;;;;;;;;15.40;49.92;100971.28;5034482;28;19925;-55
2022/01/01 06:41:08;;;;;;;;;;;;;;;15.38;49.92;100972.72;5054312;28;19963;-55
2022/01/01 06:43:35;;;;;;;;;;;;;;;15.41;49.29;100975.75;5054789;28;19948;-55
2022/01/01 06:46:01;;;;;;;;;;;;;;;15.54;49.56;100984.59;5054424;28;20015;-55
2022/01/01 06:48:28;;;;;;;;;;;;;;;15.55;49.20;100981.47;5051630;28;19932;-56
2022/01/01 06:50:55;;;;;;;;;;;;;;;15.61;49.07;100982.25;5034470;28;20023;-55
2022/01/01 06:53:22;;;;;;;;;;;;;;;15.65;49.09;100986.94;5034494;28;19921;-54
2022/01/01 06:55:48;;;;;;;;;;;;;;;15.67;49.02;100994.31;5034257;28;19999;-55
2022/01/01 06:58:15;;;;;;;;;;;;;;;15.68;48.90;100990.34;5034434;28;20479;-56
2022/01/01 07:00:42;;;;;;;;;;;;;;;15.65;48.74;100992.56;5034351;28;19921;-56
2022/01/01 07:03:08;;;;;;;;;;;;;;;15.62;48.89;100981.94;5047761;28;20454;-55
2022/01/01 07:05:35;;;;;;;;;;;;;;;15.58;48.97;100991.28;5053603;28;20368;-55
2022/01/01 07:08:02;;;;;;;;;;;;;;;15.55;49.06;100989.06;5054098;28;20323;-56
2022/01/01 07:10:28;;;;;;;;;;;;;;;15.54;49.34;100991.06;5044824;28;20012;-56
2022/01/01 07:12:55;;;;;;;;;;;;;;;15.50;49.48;100995.63;5043700;28;19921;-55
2022/01/01 07:15:22;;;;;;;;;;;;;;;15.49;49.40;100984.69;5054233;28;19931;-56
2022/01/01 07:17:48;;;;;;;;;;;;;;;15.45;49.39;100989.22;5040597;28;19931;-55
2022/01/01 07:20:15;;;;;;;;;;;;;;;15.46;49.58;100988.09;5034292;28;19967;-55
2022/01/01 07:22:43;;;;;;;;;;;;;;;15.45;49.33;100990.06;5034828;28;20322;-55
2022/01/01 07:25:11;;;;;;;;;;;;;;;15.44;49.73;100996.00;5033705;28;19975;-55
2022/01/01 07:27:38;;;;;;;;;;;;;;;15.39;49.50;100992.13;5034080;28;20007;-55
2022/01/01 07:30:06;;;;;;;;;;;;;;;15.35;49.75;100990.19;5042379;28;20011;-55
2022/01/01 07:32:42;;;;;;;;;;;;;;;15.32;49.80;100993.63;5053725;28;20348;-56
2022/01/01 07:35:10;;;;;;;;;;;;;;;15.36;49.65;100989.06;5054048;28;19948;-56
2022/01/01 07:37:36;;;;;;;;;;;;;;;15.41;49.53;100987.00;5033431;28;20058;-55
2022/01/01 07:40:04;;;;;;;;;;;;;;;15.51;49.32;100996.47;5033428;28;19968;-55
2022/01/01 07:42:31;;;;;;;;;;;;;;;15.56;48.88;100993.59;5033251;28;20325;-55
2022/01/01 07:44:59;;;;;;;;;;;;;;;15.57;49.17;100998.91;5033744;28;20019;-56
2022/01/01 07:47:26;;;;;;;;;;;;;;;15.57;48.80;100996.09;5033162;28;19925;-55
2022/01/01 07:49:53;;;;;;;;;;;;;;;15.62;48.79;101000.78;5033018;28;20023;-55
2022/01/01 07:52:20;;;;;;;;;;;;;;;15.63;49.08;101003.31;5033663;28;20303;-55
2022/01/01 07:54:46;;;;;;;;;;;;;;;15.65;48.86;101001.03;5033343;28;19932;-55
2022/01/01 07:57:14;;;;;;;;;;;;;;;15.65;48.74;101003.00;5045468;28;20023;-55
2022/01/01 07:59:40;;;;;;;;;;;;;;;15.70;48.60;101000.16;5053410;28;20346;-52
2022/01/01 08:02:08;;;;;;;;;;;;;;;15.79;48.25;101003.94;5053443;28;19921;-56
2022/01/01 08:04:35;;;;;;;;;;;;;;;15.83;48.19;101005.03;5050851;28;19925;-55
2022/01/01 08:07:02;;;;;;;;;;;;;;;15.84;48.33;101000.25;5031858;28;20448;-54
2022/01/01 08:09:48;;;;;;;;;;;;;;;15.85;48.39;101010.34;5033062;28;19928;-55
2022/01/01 08:12:15;;;;;;;;;;;;;;;15.87;48.14;101006.09;5032900;28;19975;-54
2022/01/01 08:14:41;;;;;;;;;;;;;;;15.87;48.30;101017.38;5033519;28;20027;-56
2022/01/01 08:17:08;;;;;;;;;;;;;;;15.85;48.59;101018.81;5035101;28;20365;-54
2022/01/01 08:19:35;;;;;;;;;;;;;;;15.81;48.67;101015.75;5048001;28;19980;-55
2022/01/01 08:22:01;;;;;;;;;;;;;;;15.75;48.65;101025.41;5032804;28;20019;-56
2022/01/01 08:24:28;;;;;;;;;;;;;;;15.69;48.75;101028.59;5032865;28;19921;-54
2022/01/01 08:26:56;;;;;;;;;;;;;;;15.72;48.86;101031.66;5032880;28;19925;-55
2022/01/01 08:29:23;;;;;;;;;;;;;;;15.75;48.86;101024.59;5032676;28;19968;-55
2022/01/01 08:31:51;;;;;;;;;;;;;;;15.73;48.96;101022.09;5033192;28;20011;-55
2022/01/01 08:34:19;;;;;;;;;;;;;;;15.72;49.09;101025.19;5032731;28;20329;-55
2022/01/01 08:36:46;;;;;;;;;;;;;;;15.70;48.95;101031.13;5032218;28;19979;-54
2022/01/01 08:39:14;;;;;;;;;;;;;;;15.68;49.15;101041.84;5031942;28;20308;-54
2022/01/01 08:41:40;;;;;;;;;;;;;;;15.69;49.08;101023.84;5032783;28;20003;-56
2022/01/01 08:44:07;;;;;;;;;;;;;;;15.69;48.87;101031.41;5063926;28;20350;-54
2022/01/01 08:46:34;;;;;;;;;;;;;;;15.63;49.34;101036.28;5032143;28;19972;-55
2022/01/01 08:49:03;;;;;;;;;;;;;;;15.59;49.10;101040.84;5032442;28;19957;-55
2022/01/01 08:51:35;;;;;;;;;;;;;;;15.64;49.21;101046.38;5031905;28;19925;-53
2022/01/01 08:54:03;;;;;;;;;;;;;;;15.68;49.32;101061.56;5032605;28;19956;-56
2022/01/01 08:56:34;;;;;;;;;;;;;;;15.73;49.26;101072.78;5032321;28;19921;-55
2022/01/01 08:59:01;;;;;;;;;;;;;;;15.77;48.95;101071.00;5031938;28;20063;-54
2022/01/01 09:01:27;;;;;;;;;;;;;;;15.83;49.16;101080.25;5032485;28;20014;-56
2022/01/01 09:03:55;;;;;;;;;;;;;;;15.87;49.13;101079.31;5032163;28;20277;-53
2022/01/01 09:06:22;;;;;;;;;;;;;;;15.90;48.74;101079.84;5032746;28;20004;-55
2022/01/01 09:08:48;;;;;;;;;;;;;;;15.92;48.67;101081.22;5032100;28;20123;-55
2022/01/01 09:11:15;;;;;;;;;;;;;;;15.99;48.54;101087.31;5031995;28;19927;-54
2022/01/01 09:13:43;;;;;;;;;;;;;;;16.01;48.42;101089.84;5032263;28;20301;-55
2022/01/01 09:16:10;;;;;;;;;;;;;;;16.07;48.59;101085.81;5031857;28;20364;-54
2022/01/01 09:18:41;;;;;;;;;;;;;;;16.24;48.59;101094.56;5031797;28;19921;-55
2022/01/01 09:21:08;;;;;;;;;;;;;;;16.45;47.96;101097.88;5031913;28;19921;-55
2022/01/01 09:23:35;;;;;;;;;;;;;;;16.43;47.55;101093.69;5044413;28;20452;-56
2022/01/01 09:26:02;;;;;;;;;;;;;;;16.34;47.72;101102.84;5035322;28;19921;-55
2022/01/01 09:28:30;;;;;;;;;;;;;;;16.26;47.96;101095.06;5031815;28;20011;-56
2022/01/01 09:30:57;;;;;;;;;;;;;;;16.29;47.50;101108.56;5031792;28;19971;-56
2022/01/01 09:33:29;;;;;;;;;;;;;;;16.43;47.17;101111.44;5031720;28;20023;-55
2022/01/01 09:35:56;;;;;;;;;;;;;;;16.53;47.33;101118.91;5031638;28;19941;-56
2022/01/01 09:38:23;;;;;;;;;;;;;;;16.58;47.27;101118.81;5032099;28;20000;-55
2022/01/01 09:40:54;;;;;;;;;;;;;;;16.65;47.08;101118.41;5031638;28;20011;-56
2022/01/01 09:43:22;;;;;;;;;;;;;;;16.70;47.01;101138.91;5031905;28;19928;-56
2022/01/01 09:45:49;;;;;;;;;;;;;;;16.66;47.28;101120.94;5046881;28;20452;-55
2022/01/01 09:48:19;;;;;;;;;;;;;;;16.63;47.18;101123.53;5030681;28;19921;-56
2022/01/01 09:50:52;;;;;;;;;;;;;;;16.61;47.25;101132.28;5032375;28;19921;-54
2022/01/01 09:53:20;;;;;;;;;;;;;;;16.60;47.41;101130.63;5035513;28;20011;-56
2022/01/01 09:55:47;;;;;;;;;;;;;;;16.63;47.55;101135.66;5050965;28;19968;-54
2022/01/01 09:58:14;;;;;;;;;;;;;;;16.70;47.13;101132.44;5035779;28;20135;-53
2022/01/01 10:00:40;;;;;;;;;;;;;;;16.84;47.52;101135.34;5035377;28;20020;-54
2022/01/01 10:03:13;;;;;;;;;;;;;;;17.11;47.29;101141.06;5044976;28;19967;-55
2022/01/01 10:05:56;;;;;;;;;;;;;;;17.34;47.02;101149.66;5035689;28;20011;-55
2022/01/01 10:08:23;;;;;;;;;;;;;;;18.01;45.80;101141.50;5035241;28;19964;-56
2022/01/01 10:10:51;;;;;;;;;;;;;;;18.60;44.51;101142.41;5035527;28;20341;-55
2022/01/01 10:13:18;;;;;;;;;;;;;;;18.86;43.89;101141.78;5036421;28;20353;-55
2022/01/01 10:15:44;;;;;;;;;;;;;;;18.87;43.48;101141.47;5035177;28;19925;-55
2022/01/01 10:18:11;;;;;;;;;;;;;;;18.80;43.22;101140.25;5035325;28;20395;-55
2022/01/01 10:20:43;;;;;;;;;;;;;;;19.05;43.18;101142.44;5035058;28;20015;-55
2022/01/01 10:23:12;;;;;;;;;;;;;;;19.51;42.28;101135.50;5033723;28;19921;-55
2022/01/01 10:28:24;;;;;;;;;;;;;;;20.17;40.43;101135.56;5045721;28;20015;-55
2022/01/01 10:30:50;;;;;;;;;;;;;;;20.13;40.65;101138.19;5042843;28;19960;-55
2022/01/01 10:33:18;;;;;;;;;;;;;;;20.64;40.43;101140.59;5034939;28;19931;-54
2022/01/01 10:35:45;;;;;;;;;;;;;;;21.17;39.42;101130.84;5034831;28;19925;-55
2022/01/01 10:38:16;;;;;;;;;;;;;;;21.25;39.27;101147.84;5034660;28;19971;-55
2022/01/01 10:40:43;;;;;;;;;;;;;;;21.97;38.63;101148.06;5034937;28;20020;-55
2022/01/01 10:43:10;;;;;;;;;;;;;;;22.56;37.41;101148.00;5034743;28;19928;-55
2022/01/01 10:45:41;;;;;;;;;;;;;;;22.93;36.70;101149.03;5034406;28;20015;-56
2022/01/01 10:48:21;;;;;;;;;;;;;;;22.96;36.16;101160.94;5035344;28;20012;-56
2022/01/01 10:50:53;;;;;;;;;;;;;;;22.48;36.71;101158.28;5034523;28;19920;-55
2022/01/01 10:53:25;;;;;;;;;;;;;;;22.82;36.16;101162.03;5034862;28;20292;-55
2022/01/01 10:55:53;;;;;;;;;;;;;;;23.42;35.27;101162.63;5034651;28;20011;-56
2022/01/01 10:58:31;;;;;;;;;;;;;;;24.03;34.85;101159.00;5034398;28;20357;-56
2022/01/01 11:01:00;;;;;;;;;;;;;;;24.09;33.29;101151.88;5034424;28;20330;-55
2022/01/01 11:03:28;;;;;;;;;;;;;;;23.50;34.26;101158.00;5034958;28;19921;-56
2022/01/01 11:06:06;;;;;;;;;;;;;;;22.56;35.74;101164.25;5033155;28;19948;-56
2022/01/01 11:08:33;;;;;;;;;;;;;;;22.32;36.86;101171.47;5034203;28;19968;-56
2022/01/01 11:11:01;;;;;;;;;;;;;;;23.21;36.57;101167.53;5034090;28;19921;-56
2022/01/01 11:13:28;;;;;;;;;;;;;;;24.07;35.00;101159.97;5034802;28;20324;-57
2022/01/01 11:15:55;;;;;;;;;;;;;;;24.51;35.12;101166.72;5034166;28;19951;-56
2022/01/01 11:18:24;;;;;;;;;;;;;;;25.17;33.76;101168.25;5034972;28;19982;-56
2022/01/01 11:20:51;;;;;;;;;;;;;;;25.59;32.98;101167.75;5034514;28;20051;-56
2022/01/01 11:23:18;;;;;;;;;;;;;;;25.70;32.56;101157.44;5033929;28;20380;-57
2022/01/01 11:25:46;;;;;;;;;;;;;;;25.88;32.07;101168.53;5032689;28;20292;-57
2022/01/01 11:28:14;;;;;;;;;;;;;;;26.31;31.54;101169.56;5033626;28;20015;-56
2022/01/01 11:31:01;;;;;;;;;;;;;;;26.32;31.92;101162.63;5033835;28;20403;-57
2022/01/01 11:33:30;;;;;;;;;;;;;;;26.50;31.81;101163.09;5040413;28;20474;-57
2022/01/01 11:35:58;;;;;;;;;;;;;;;26.64;31.69;101160.56;5053604;28;20024;-57
2022/01/01 11:38:26;;;;;;;;;;;;;;;26.99;30.48;101154.75;5043967;28;19960;-57
2022/01/01 11:41:04;;;;;;;;;;;;;;;27.05;30.80;101158.97;5033651;28;19928;-56
2022/01/01 11:43:37;;;;;;;;;;;;;;;27.54;30.11;101154.59;5033903;28;19944;-57
2022/01/01 11:46:05;;;;;;;;;;;;;;;28.16;30.12;101140.06;5033383;28;19968;-57
2022/01/01 11:48:41;;;;;;;;;;;;;;;28.35;28.65;101140.78;5033632;28;19944;-53
2022/01/01 11:51:35;;;;;;;;;;;;;;;27.84;28.85;101143.25;5033761;28;20420;-57
2022/01/01 11:54:15;;;;;;;;;;;;;;;27.74;29.36;101135.28;5033763;28;19944;-55
2022/01/01 11:56:58;;;;;;;;;;;;;;;27.38;29.65;101148.97;5034128;28;19921;-55
2022/01/01 11:59:28;;;;;;;;;;;;;;;26.46;30.31;101137.19;5032939;28;19921;-58
2022/01/01 12:01:56;;;;;;;;;;;;;;;26.38;30.13;101146.84;5033233;28;20365;-58
2022/01/01 12:04:35;;;;;;;;;;;;;;;26.65;30.53;101145.84;5033094;28;19921;-57
2022/01/01 12:07:17;;;;;;;;;;;;;;;27.33;29.88;101121.44;5033129;28;19978;-56
2022/01/01 12:10:05;;;;;;;;;;;;;;;28.53;28.79;101141.06;5033059;28;20007;-55
2022/01/01 12:12:38;;;;;;;;;;;;;;;29.34;27.53;101130.97;5049587;28;19960;-56
2022/01/01 12:15:06;;;;;;;;;;;;;;;29.50;26.78;101120.03;5052378;28;20268;-56
2022/01/01 12:18:01;;;;;;;;;;;;;;;29.65;26.84;101120.19;5052831;28;19927;-55
2022/01/01 12:20:51;;;;;;;;;;;;;;;29.87;25.66;101116.25;5033318;28;20345;-55
2022/01/01 12:23:19;;;;;;;;;;;;;;;29.94;24.05;101127.81;5033254;28;20273;-55
2022/01/01 12:25:46;;;;;;;;;;;;;;;29.78;25.07;101107.16;5032411;28;19921;-54
2022/01/01 12:28:18;;;;;;;;;;;;;;;30.17;24.92;101103.72;5042675;28;20015;-56
2022/01/01 12:30:51;;;;;;;;;;;;;;;30.35;24.26;101096.03;5052025;28;20003;-55
2022/01/01 12:33:38;;;;;;;;;;;;;;;30.10;23.44;101100.78;5034780;28;20275;-55
2022/01/01 12:36:17;;;;;;;;;;;;;;;28.91;23.32;101083.63;5032749;28;20312;-56
2022/01/01 12:38:54;;;;;;;;;;;;;;;28.80;24.71;101069.16;5041917;28;20031;-56
2022/01/01 12:41:22;;;;;;;;;;;;;;;28.87;23.17;101063.47;5052672;28;20294;-55
2022/01/01 12:43:56;;;;;;;;;;;;;;;28.11;23.88;101069.47;5052335;28;20440;-56
2022/01/01 12:46:24;;;;;;;;;;;;;;;27.38;24.56;101065.78;5050297;28;20019;-55
2022/01/01 12:48:51;;;;;;;;;;;;;;;26.75;24.61;101064.19;5051905;28;19963;-56